createdAt,value
2019-02-25T00:02:29.076Z,50.80
2019-02-25T00:04:56.918Z,50.80
2019-02-25T00:07:25.115Z,50.80
2019-02-25T00:09:52.962Z,50.90
2019-02-25T00:12:20.828Z,50.80
2019-02-25T00:14:48.666Z,50.60
2019-02-25T00:17:16.529Z,50.60
2019-02-25T00:19:44.375Z,50.60
2019-02-25T00:22:12.327Z,50.90
2019-02-25T00:24:40.167Z,50.80
2019-02-25T00:27:08.035Z,50.60
2019-02-25T00:29:35.870Z,50.80
2019-02-25T00:32:03.737Z,51.00
2019-02-25T00:34:31.579Z,50.70
2019-02-25T00:36:59.443Z,50.70
2019-02-25T00:39:27.283Z,50.70
2019-02-25T00:41:55.447Z,50.80
2019-02-25T00:44:23.291Z,50.80
2019-02-25T00:46:51.488Z,50.90
2019-02-25T00:49:19.331Z,50.80
2019-02-25T00:51:47.180Z,50.80
2019-02-25T00:54:15.026Z,50.90
2019-02-25T00:56:42.862Z,50.70
2019-02-25T00:59:10.787Z,50.90
2019-02-25T01:01:38.641Z,50.90
2019-02-25T01:04:06.479Z,51.60
2019-02-25T01:06:34.739Z,50.70
2019-02-25T01:09:02.679Z,50.70
2019-02-25T01:11:30.897Z,50.80
2019-02-25T01:13:58.760Z,50.70
2019-02-25T01:16:26.903Z,50.60
2019-02-25T01:18:54.767Z,50.80
2019-02-25T01:21:22.688Z,50.80
2019-02-25T01:23:50.583Z,50.60
2019-02-25T01:26:18.428Z,50.80
2019-02-25T01:28:46.642Z,50.60
2019-02-25T01:31:14.511Z,50.70
2019-02-25T01:33:42.683Z,50.80
2019-02-25T01:36:10.523Z,50.70
2019-02-25T01:38:38.754Z,50.60
2019-02-25T01:41:06.598Z,50.50
2019-02-25T01:43:34.763Z,50.60
2019-02-25T01:46:02.607Z,50.70
2019-02-25T01:48:30.550Z,50.60
2019-02-25T01:50:58.390Z,50.40
2019-02-25T01:53:26.255Z,50.60
2019-02-25T01:55:54.095Z,50.40
2019-02-25T01:58:21.968Z,50.60
2019-02-25T02:00:49.815Z,50.60
2019-02-25T02:03:17.772Z,51.30
2019-02-25T02:05:45.864Z,50.50
2019-02-25T02:08:13.727Z,50.30
2019-02-25T02:10:41.904Z,50.50
2019-02-25T02:13:14.204Z,50.20
2019-02-25T02:15:39.338Z,50.30
2019-02-25T02:18:07.200Z,50.70
2019-02-25T02:20:35.045Z,50.30
2019-02-25T02:23:03.180Z,50.10
2019-02-25T02:25:31.035Z,50.60
2019-02-25T02:27:58.868Z,50.50
2019-02-25T02:30:26.707Z,50.40
2019-02-25T02:32:54.879Z,50.60
2019-02-25T02:35:22.723Z,50.30
2019-02-25T02:37:50.562Z,50.50
2019-02-25T02:40:18.767Z,50.00
2019-02-25T02:42:48.003Z,50.50
2019-02-25T02:45:18.066Z,50.90
2019-02-25T02:47:48.252Z,50.50
2019-02-25T02:50:18.064Z,50.60
2019-02-25T02:52:46.175Z,50.40
2019-02-25T02:55:14.351Z,49.90
2019-02-25T02:57:42.209Z,50.20
2019-02-25T03:00:12.127Z,50.10
2019-02-25T03:02:39.976Z,50.50
2019-02-25T03:05:08.944Z,50.30
2019-02-25T03:07:37.059Z,50.70
2019-02-25T03:10:05.741Z,50.30
2019-02-25T03:12:33.572Z,51.30
2019-02-25T03:15:01.442Z,50.50
2019-02-25T03:17:29.551Z,50.60
2019-02-25T03:19:57.482Z,50.90
2019-02-25T03:22:25.588Z,50.20
2019-02-25T03:24:53.490Z,50.30
2019-02-25T03:27:21.629Z,50.40
2019-02-25T03:29:49.802Z,50.40
2019-02-25T03:32:17.977Z,50.60
2019-02-25T03:34:45.845Z,51.10
2019-02-25T03:37:13.684Z,50.90
2019-02-25T03:39:41.557Z,51.00
2019-02-25T03:42:09.395Z,50.80
2019-02-25T03:44:37.259Z,49.90
2019-02-25T03:47:05.100Z,51.00
2019-02-25T03:49:32.963Z,50.80
2019-02-25T03:52:00.804Z,51.20
2019-02-25T03:54:28.972Z,51.00
2019-02-25T03:56:57.157Z,51.00
2019-02-25T03:59:25.339Z,51.10
2019-02-25T04:01:53.507Z,51.20
2019-02-25T04:04:21.816Z,50.50
2019-02-25T04:06:49.763Z,51.50
2019-02-25T04:09:17.607Z,50.70
2019-02-25T04:11:45.447Z,50.80
2019-02-25T04:14:13.292Z,50.60
2019-02-25T04:16:41.219Z,50.60
2019-02-25T04:19:09.379Z,50.10
2019-02-25T04:21:37.220Z,51.00
2019-02-25T04:24:05.098Z,50.30
2019-02-25T04:26:32.947Z,49.90
2019-02-25T04:29:00.796Z,50.50
2019-02-25T04:31:28.733Z,48.40
2019-02-25T04:33:56.878Z,50.50
2019-02-25T04:36:25.380Z,49.80
2019-02-25T04:38:53.225Z,50.80
2019-02-25T04:41:21.403Z,50.50
2019-02-25T04:43:49.259Z,50.30
2019-02-25T04:46:17.119Z,49.00
2019-02-25T04:48:44.964Z,49.60
2019-02-25T04:51:13.171Z,49.70
2019-02-25T04:53:41.015Z,49.10
2019-02-25T04:56:09.243Z,49.90
2019-02-25T04:58:37.087Z,49.60
2019-02-25T05:01:04.955Z,49.10
2019-02-25T05:03:32.795Z,50.10
2019-02-25T05:06:00.665Z,50.50
2019-02-25T05:08:28.848Z,49.30
2019-02-25T05:10:56.724Z,48.30
2019-02-25T05:13:24.888Z,48.40
2019-02-25T05:15:52.750Z,49.60
2019-02-25T05:18:20.594Z,50.20
2019-02-25T05:20:48.458Z,47.80
2019-02-25T05:23:16.305Z,50.10
2019-02-25T05:25:44.168Z,49.70
2019-02-25T05:28:12.010Z,49.20
2019-02-25T05:30:40.158Z,50.50
2019-02-25T05:33:08.005Z,50.50
2019-02-25T05:35:35.877Z,50.50
2019-02-25T05:38:03.718Z,50.10
2019-02-25T05:40:31.579Z,50.30
2019-02-25T05:42:59.452Z,49.20
2019-02-25T05:45:27.680Z,48.60
2019-02-25T05:47:55.916Z,50.20
2019-02-25T05:50:23.780Z,50.30
2019-02-25T05:52:51.978Z,50.50
2019-02-25T05:55:19.845Z,51.20
2019-02-25T05:57:48.017Z,51.10
2019-02-25T06:00:18.851Z,51.10
2019-02-25T06:02:46.762Z,51.00
2019-02-25T06:05:14.621Z,50.70
2019-02-25T06:07:42.486Z,50.50
2019-02-25T06:10:10.323Z,50.30
2019-02-25T06:12:38.188Z,49.50
2019-02-25T06:15:06.715Z,49.10
2019-02-25T06:17:34.659Z,49.10
2019-02-25T06:20:02.514Z,49.00
2019-02-25T06:22:30.399Z,49.20
2019-02-25T06:24:58.944Z,48.10
2019-02-25T06:27:30.727Z,47.50
2019-02-25T06:29:56.495Z,47.40
2019-02-25T06:32:24.423Z,47.90
2019-02-25T06:34:52.271Z,47.20
2019-02-25T06:37:20.137Z,47.40
2019-02-25T06:39:48.018Z,46.50
2019-02-25T06:42:15.927Z,47.10
2019-02-25T06:44:43.767Z,46.20
2019-02-25T06:47:11.630Z,46.50
2019-02-25T06:49:39.758Z,46.60
2019-02-25T06:52:08.141Z,45.20
2019-02-25T06:54:35.979Z,46.40
2019-02-25T06:57:03.951Z,46.80
2019-02-25T06:59:31.791Z,47.90
2019-02-25T07:01:59.908Z,47.80
2019-02-25T07:04:41.709Z,45.90
2019-02-25T07:07:17.010Z,37.50
2019-02-25T07:10:09.902Z,42.50
2019-02-25T07:13:02.930Z,42.60
2019-02-25T07:15:48.851Z,44.20
2019-02-25T07:18:36.469Z,44.50
2019-02-25T07:21:14.488Z,44.30
2019-02-25T07:23:54.135Z,44.50
2019-02-25T07:26:44.099Z,45.00
2019-02-25T07:29:28.802Z,45.10
2019-02-25T07:32:19.378Z,44.70
2019-02-25T07:34:53.696Z,44.50
2019-02-25T07:37:35.588Z,44.70
2019-02-25T07:40:22.588Z,44.70
2019-02-25T07:43:08.883Z,44.40
2019-02-25T07:46:05.643Z,44.90
2019-02-25T07:48:42.303Z,44.90
2019-02-25T07:51:44.367Z,45.30
2019-02-25T07:54:27.538Z,45.40
2019-02-25T07:57:13.306Z,45.20
2019-02-25T07:59:53.342Z,45.50
2019-02-25T08:02:43.332Z,45.90
2019-02-25T08:05:30.654Z,45.90
2019-02-25T08:08:08.758Z,45.70
2019-02-25T08:10:56.054Z,45.60
2019-02-25T08:13:41.427Z,45.90
2019-02-25T08:16:40.611Z,46.00
2019-02-25T08:19:17.129Z,46.10
2019-02-25T08:22:09.811Z,46.90
2019-02-25T08:25:02.875Z,46.30
2019-02-25T08:27:45.345Z,46.60
2019-02-25T08:30:37.972Z,46.40
2019-02-25T08:33:22.751Z,46.40
2019-02-25T08:36:40.684Z,46.50
2019-02-25T08:39:22.989Z,46.70
2019-02-25T08:42:21.839Z,46.70
2019-02-25T08:44:58.971Z,46.70
2019-02-25T08:47:45.943Z,46.80
2019-02-25T08:50:14.463Z,47.20
2019-02-25T08:52:42.607Z,48.10
2019-02-25T08:55:10.531Z,48.50
2019-02-25T08:57:38.437Z,48.70
2019-02-25T09:00:08.171Z,48.70
2019-02-25T09:02:36.025Z,48.90
2019-02-25T09:05:04.203Z,48.80
2019-02-25T09:07:32.042Z,49.00
2019-02-25T09:09:59.887Z,48.90
2019-02-25T09:12:28.111Z,49.20
2019-02-25T09:14:55.955Z,49.00
2019-02-25T09:17:23.819Z,47.90
2019-02-25T09:19:52.019Z,47.40
2019-02-25T09:22:20.191Z,47.40
2019-02-25T09:24:48.374Z,45.40
2019-02-25T09:27:16.535Z,46.50
2019-02-25T09:29:45.011Z,46.80
2019-02-25T09:32:13.080Z,47.30
2019-02-25T09:34:40.915Z,47.00
2019-02-25T09:37:08.752Z,46.80
2019-02-25T09:39:36.891Z,46.80
2019-02-25T09:42:04.736Z,46.40
2019-02-25T09:44:32.659Z,46.20
2019-02-25T09:47:00.798Z,46.90
2019-02-25T09:49:28.971Z,46.70
2019-02-25T09:51:56.818Z,47.30
2019-02-25T09:54:24.650Z,46.90
2019-02-25T09:56:52.487Z,47.30
2019-02-25T09:59:20.331Z,47.20
2019-02-25T10:01:48.183Z,47.50
2019-02-25T10:04:16.027Z,47.00
2019-02-25T10:06:43.866Z,47.30
2019-02-25T10:09:11.711Z,47.10
2019-02-25T10:11:39.875Z,47.20
2019-02-25T10:14:07.719Z,47.30
2019-02-25T10:16:35.559Z,47.30
2019-02-25T10:19:03.401Z,47.40
2019-02-25T10:21:31.244Z,47.40
2019-02-25T10:23:59.160Z,47.30
2019-02-25T10:26:27.007Z,47.10
2019-02-25T10:28:54.852Z,37.80
2019-02-25T10:31:23.008Z,30.10
2019-02-25T10:33:50.921Z,29.70
2019-02-25T10:36:18.867Z,34.90
2019-02-25T10:38:47.011Z,38.20
2019-02-25T10:41:16.590Z,39.20
2019-02-25T10:43:44.423Z,39.80
2019-02-25T10:46:13.874Z,39.90
2019-02-25T10:48:41.875Z,40.00
2019-02-25T10:51:11.384Z,40.60
2019-02-25T10:53:39.635Z,41.40
2019-02-25T10:56:21.601Z,41.70
2019-02-25T10:58:49.703Z,42.10
2019-02-25T11:01:19.871Z,42.40
2019-02-25T11:03:47.855Z,42.70
2019-02-25T11:06:16.727Z,43.00
2019-02-25T11:08:48.470Z,43.20
2019-02-25T11:11:20.978Z,43.40
2019-02-25T11:13:49.399Z,43.70
2019-02-25T11:16:18.685Z,43.70
2019-02-25T11:18:46.920Z,44.10
2019-02-25T11:21:14.767Z,44.20
2019-02-25T11:23:43.472Z,44.40
2019-02-25T11:26:12.216Z,44.40
2019-02-25T11:28:41.249Z,44.60
2019-02-25T11:31:09.652Z,44.60
2019-02-25T11:33:37.529Z,44.70
2019-02-25T11:36:05.375Z,45.20
2019-02-25T11:38:37.079Z,45.30
2019-02-25T11:41:04.770Z,45.60
2019-02-25T11:43:33.107Z,45.90
2019-02-25T11:46:01.383Z,45.80
2019-02-25T11:48:29.436Z,46.10
2019-02-25T11:50:57.371Z,45.50
2019-02-25T11:53:25.244Z,46.90
2019-02-25T11:55:53.090Z,46.90
2019-02-25T11:58:20.960Z,46.40
2019-02-25T12:00:49.152Z,47.60
2019-02-25T12:03:16.995Z,47.90
2019-02-25T12:05:44.840Z,48.00
2019-02-25T12:08:12.679Z,48.20
2019-02-25T12:10:40.862Z,48.20
2019-02-25T12:13:09.048Z,48.30
2019-02-25T12:15:37.838Z,48.30
2019-02-25T12:18:06.232Z,48.30
2019-02-25T12:20:34.083Z,48.40
2019-02-25T12:23:01.923Z,48.50
2019-02-25T12:25:30.111Z,48.60
2019-02-25T12:27:58.392Z,48.60
2019-02-25T12:30:26.672Z,48.60
2019-02-25T12:32:54.843Z,48.70
2019-02-25T12:35:22.687Z,48.70
2019-02-25T12:37:50.540Z,48.80
2019-02-25T12:40:18.384Z,48.90
2019-02-25T12:42:46.507Z,48.90
2019-02-25T12:45:14.675Z,49.00
2019-02-25T12:47:42.518Z,49.00
2019-02-25T12:50:10.819Z,49.10
2019-02-25T12:52:38.669Z,49.10
2019-02-25T12:55:07.351Z,49.10
2019-02-25T12:57:35.196Z,49.20
2019-02-25T13:00:03.158Z,49.20
2019-02-25T13:02:31.379Z,49.20
2019-02-25T13:04:59.555Z,49.20
2019-02-25T13:07:27.723Z,49.30
2019-02-25T13:09:55.596Z,49.30
2019-02-25T13:12:23.767Z,49.40
2019-02-25T13:14:51.938Z,49.40
2019-02-25T13:17:19.852Z,49.40
2019-02-25T13:19:47.722Z,49.50
2019-02-25T13:22:15.571Z,49.50
2019-02-25T13:24:43.714Z,49.50
2019-02-25T13:27:13.459Z,49.40
2019-02-25T13:29:41.335Z,49.50
2019-02-25T13:32:09.565Z,49.50
2019-02-25T13:34:37.863Z,49.50
2019-02-25T13:37:06.083Z,49.60
2019-02-25T13:39:34.288Z,49.60
2019-02-25T13:42:02.206Z,49.60
2019-02-25T13:44:30.432Z,49.70
2019-02-25T13:46:58.359Z,49.60
2019-02-25T13:49:26.283Z,49.70
2019-02-25T13:51:54.212Z,49.80
2019-02-25T13:54:22.134Z,49.70
2019-02-25T13:56:50.329Z,49.80
2019-02-25T13:59:18.549Z,49.80
2019-02-25T14:01:46.467Z,49.80
2019-02-25T14:04:14.691Z,49.80
2019-02-25T14:06:42.610Z,49.80
2019-02-25T14:09:11.114Z,49.90
2019-02-25T14:11:39.025Z,49.80
2019-02-25T14:14:07.284Z,49.80
2019-02-25T14:16:35.560Z,49.70
2019-02-25T14:19:03.479Z,49.80
2019-02-25T14:21:31.778Z,49.80
2019-02-25T14:23:59.902Z,49.80
2019-02-25T14:26:27.900Z,49.70
2019-02-25T14:28:56.128Z,49.70
2019-02-25T14:31:24.596Z,49.70
2019-02-25T14:33:52.511Z,49.80
2019-02-25T14:36:20.543Z,50.00
2019-02-25T14:38:48.813Z,49.80
2019-02-25T14:41:18.528Z,49.80
2019-02-25T14:43:48.584Z,50.50
2019-02-25T14:46:17.333Z,49.70
2019-02-25T14:48:45.892Z,49.70
2019-02-25T14:51:13.841Z,49.80
2019-02-25T14:53:42.374Z,49.70
2019-02-25T14:56:11.577Z,50.40
2019-02-25T14:58:40.622Z,49.80
2019-02-25T15:01:09.498Z,49.80
2019-02-25T15:03:37.486Z,49.90
2019-02-25T15:06:05.355Z,49.80
2019-02-25T15:08:33.272Z,49.90
2019-02-25T15:11:02.355Z,49.80
2019-02-25T15:13:32.659Z,49.80
2019-02-25T15:16:01.038Z,49.80
2019-02-25T15:18:29.597Z,49.80
2019-02-25T15:21:00.622Z,49.80
2019-02-25T15:23:29.694Z,50.00
2019-02-25T15:26:04.983Z,49.60
2019-02-25T15:28:27.353Z,49.60
2019-02-25T15:30:55.607Z,49.60
2019-02-25T15:33:23.543Z,49.20
2019-02-25T15:35:51.755Z,48.00
2019-02-25T15:38:19.681Z,47.00
2019-02-25T15:40:47.684Z,48.10
2019-02-25T15:43:18.133Z,48.50
2019-02-25T15:45:45.424Z,48.30
2019-02-25T15:48:14.491Z,48.40
2019-02-25T15:50:44.130Z,48.10
2019-02-25T15:53:15.765Z,48.00
2019-02-25T15:55:41.847Z,48.00
2019-02-25T15:58:09.791Z,47.70
2019-02-25T16:00:38.402Z,47.80
2019-02-25T16:03:09.114Z,47.90
2019-02-25T16:05:38.303Z,47.90
2019-02-25T16:08:06.401Z,47.80
2019-02-25T16:10:34.319Z,47.80
2019-02-25T16:13:04.616Z,47.90
2019-02-25T16:15:32.148Z,48.00
2019-02-25T16:18:02.274Z,47.90
2019-02-25T16:20:32.219Z,48.00
2019-02-25T16:23:00.378Z,47.90
2019-02-25T16:25:29.798Z,47.90
2019-02-25T16:27:58.348Z,47.90
2019-02-25T16:30:28.852Z,48.00
2019-02-25T16:32:55.959Z,47.90
2019-02-25T16:35:23.875Z,48.00
2019-02-25T16:37:53.081Z,48.00
2019-02-25T16:40:24.467Z,48.70
2019-02-25T16:42:54.940Z,48.10
2019-02-25T16:45:21.273Z,48.10
2019-02-25T16:47:49.577Z,48.10
2019-02-25T16:50:18.698Z,48.00
2019-02-25T16:52:49.145Z,48.50
2019-02-25T16:55:18.210Z,48.20
2019-02-25T16:57:47.811Z,48.50
2019-02-25T17:00:16.288Z,47.80
2019-02-25T17:02:44.887Z,48.10
2019-02-25T17:05:13.128Z,48.10
2019-02-25T17:07:42.599Z,48.10
2019-02-25T17:10:12.452Z,48.20
2019-02-25T17:12:40.399Z,48.20
2019-02-25T17:15:10.138Z,48.00
2019-02-25T17:17:38.448Z,48.10
2019-02-25T17:20:10.220Z,48.20
2019-02-25T17:22:37.154Z,47.60
2019-02-25T17:25:08.187Z,47.80
2019-02-25T17:27:35.135Z,47.70
2019-02-25T17:30:03.688Z,47.60
2019-02-25T17:32:31.630Z,47.30
2019-02-25T17:35:00.405Z,47.90
2019-02-25T17:37:31.385Z,48.60
2019-02-25T17:40:03.543Z,48.80
2019-02-25T17:42:33.095Z,48.20
2019-02-25T17:44:59.808Z,48.20
2019-02-25T17:47:30.599Z,48.40
2019-02-25T17:49:58.801Z,48.30
2019-02-25T17:52:28.052Z,47.70
2019-02-25T17:54:56.255Z,48.10
2019-02-25T17:57:25.743Z,47.70
2019-02-25T17:59:55.249Z,48.50
2019-02-25T18:02:23.847Z,47.80
2019-02-25T18:04:53.078Z,47.70
2019-02-25T18:07:21.735Z,47.60
2019-02-25T18:09:50.009Z,47.60
2019-02-25T18:12:18.993Z,47.60
2019-02-25T18:14:47.471Z,47.60
2019-02-25T18:17:17.468Z,47.40
2019-02-25T18:19:45.638Z,47.40
2019-02-25T18:22:16.721Z,47.40
2019-02-25T18:24:44.523Z,47.40
2019-02-25T18:27:13.663Z,47.40
2019-02-25T18:29:43.978Z,47.30
2019-02-25T18:32:11.866Z,47.30
2019-02-25T18:34:40.235Z,47.30
2019-02-25T18:37:09.221Z,47.10
2019-02-25T18:39:37.918Z,47.20
2019-02-25T18:42:06.307Z,47.20
2019-02-25T18:44:34.468Z,47.20
2019-02-25T18:47:03.054Z,47.20
2019-02-25T18:49:32.538Z,47.40
2019-02-25T18:52:00.731Z,47.00
2019-02-25T18:54:28.655Z,47.00
2019-02-25T18:56:57.468Z,47.20
2019-02-25T18:59:26.601Z,47.10
2019-02-25T19:01:54.516Z,47.10
2019-02-25T19:04:22.431Z,46.90
2019-02-25T19:06:50.358Z,47.10
2019-02-25T19:09:21.198Z,47.00
2019-02-25T19:11:49.125Z,47.00
2019-02-25T19:14:21.678Z,47.00
2019-02-25T19:16:48.163Z,47.10
2019-02-25T19:19:17.107Z,47.00
2019-02-25T19:21:47.786Z,47.10
2019-02-25T19:24:16.604Z,46.80
2019-02-25T19:26:46.763Z,46.80
2019-02-25T19:29:15.230Z,48.40
2019-02-25T19:31:44.640Z,48.80
2019-02-25T19:34:15.509Z,48.90
2019-02-25T19:36:42.122Z,48.90
2019-02-25T19:39:11.969Z,48.90
2019-02-25T19:41:40.906Z,48.90
2019-02-25T19:44:10.384Z,49.00
2019-02-25T19:46:38.431Z,49.00
2019-02-25T19:49:06.635Z,49.10
2019-02-25T19:51:34.812Z,49.00
2019-02-25T19:54:06.717Z,49.00
2019-02-25T19:56:32.224Z,49.00
2019-02-25T19:59:00.747Z,48.90
2019-02-25T20:01:30.063Z,49.00
2019-02-25T20:03:59.563Z,49.10
2019-02-25T20:06:28.058Z,49.00
2019-02-25T20:08:58.174Z,49.00
2019-02-25T20:11:25.827Z,49.00
2019-02-25T20:13:55.240Z,49.10
2019-02-25T20:16:25.985Z,49.00
2019-02-25T20:18:53.796Z,49.10
2019-02-25T20:21:22.986Z,49.00
2019-02-25T20:23:53.786Z,49.00
2019-02-25T20:26:22.435Z,48.90
2019-02-25T20:28:51.746Z,49.00
2019-02-25T20:31:19.631Z,48.90
2019-02-25T20:33:47.490Z,49.00
2019-02-25T20:36:19.149Z,49.00
2019-02-25T20:38:45.250Z,48.90
2019-02-25T20:41:16.057Z,49.10
2019-02-25T20:43:44.483Z,48.70
2019-02-25T20:46:12.507Z,48.90
2019-02-25T20:48:40.343Z,48.60
2019-02-25T20:51:10.233Z,48.90
2019-02-25T20:53:38.110Z,49.00
2019-02-25T20:56:06.019Z,49.00
2019-02-25T20:58:36.070Z,49.10
2019-02-25T21:01:07.236Z,49.00
2019-02-25T21:03:33.459Z,49.00
2019-02-25T21:06:02.639Z,49.00
2019-02-25T21:08:30.923Z,49.00
2019-02-25T21:10:59.907Z,48.90
2019-02-25T21:13:30.788Z,49.00
2019-02-25T21:15:58.301Z,48.90
2019-02-25T21:18:30.926Z,48.90
2019-02-25T21:20:58.950Z,49.00
2019-02-25T21:23:26.807Z,48.90
2019-02-25T21:25:57.443Z,49.00
2019-02-25T21:28:27.042Z,49.10
2019-02-25T21:30:53.856Z,48.90
2019-02-25T21:33:24.938Z,48.90
2019-02-25T21:35:51.267Z,48.90
2019-02-25T21:38:19.994Z,48.90
2019-02-25T21:40:50.578Z,48.80
2019-02-25T21:43:20.592Z,48.80
2019-02-25T21:45:50.454Z,48.80
2019-02-25T21:48:21.134Z,47.90
2019-02-25T21:50:47.991Z,47.40
2019-02-25T21:53:16.582Z,46.70
2019-02-25T21:55:45.399Z,48.20
2019-02-25T21:58:13.278Z,47.30
2019-02-25T22:00:41.125Z,46.40
2019-02-25T22:03:10.909Z,47.30
2019-02-25T22:05:38.875Z,47.10
2019-02-25T22:08:06.731Z,46.70
2019-02-25T22:10:36.812Z,46.00
2019-02-25T22:13:06.752Z,46.00
2019-02-25T22:15:34.405Z,46.10
2019-02-25T22:18:03.874Z,46.10
2019-02-25T22:20:35.603Z,46.10
2019-02-25T22:23:03.647Z,48.00
2019-02-25T22:25:32.081Z,47.60
2019-02-25T22:28:01.660Z,46.50
2019-02-25T22:30:29.809Z,47.20
2019-02-25T22:33:00.075Z,46.90
2019-02-25T22:35:27.912Z,48.10
2019-02-25T22:37:57.970Z,47.80
2019-02-25T22:41:07.946Z,47.90
2019-02-25T22:43:48.230Z,47.50
2019-02-25T22:46:16.943Z,46.50
2019-02-25T22:52:07.458Z,46.70
2019-02-25T22:54:39.066Z,46.30
2019-02-25T22:57:08.493Z,46.50
2019-02-25T22:59:36.419Z,46.80
2019-02-25T23:02:04.744Z,46.70
2019-02-25T23:04:32.658Z,47.20
2019-02-25T23:07:00.536Z,46.60
2019-02-25T23:09:28.656Z,49.80
2019-02-25T23:11:56.576Z,50.80
2019-02-25T23:14:24.696Z,50.30
2019-02-25T23:16:52.863Z,50.80
2019-02-25T23:19:22.429Z,50.80
2019-02-25T23:21:50.747Z,51.00
2019-02-25T23:24:18.679Z,50.90
2019-02-25T23:26:46.524Z,51.00
2019-02-25T23:29:15.578Z,51.90
2019-02-25T23:31:46.446Z,50.90
2019-02-25T23:34:15.351Z,50.90
2019-02-25T23:36:45.002Z,51.40
2019-02-25T23:39:17.129Z,51.20
2019-02-25T23:41:43.915Z,51.20
2019-02-25T23:44:13.262Z,51.30
2019-02-25T23:46:42.175Z,51.10
2019-02-25T23:49:10.666Z,51.10
2019-02-25T23:51:39.521Z,51.00
2019-02-25T23:54:09.519Z,51.30
2019-02-25T23:56:38.132Z,51.20
2019-02-25T23:59:05.971Z,51.50
